sensor_id;sensor_type;location;lat;lon;timestamp;P1;durP1;ratioP1;P2;durP2;ratioP2
5646;SDS011;2845;48.626;9.362;2023-07-08T00:02:30;7.18;;;3.38;;
5646;SDS011;2845;48.626;9.362;2023-07-08T00:05:05;6.63;;;3.10;;
5646;SDS011;2845;48.626;9.362;2023-07-08T00:07:41;7.45;;;2.72;;
5646;SDS011;2845;48.626;9.362;2023-07-08T00:10:18;4.30;;;2.35;;
5646;SDS011;2845;48.626;9.362;2023-07-08T00:12:58;6.55;;;2.85;;
5646;SDS011;2845;48.626;9.362;2023-07-08T00:15:32;6.47;;;3.00;;
5646;SDS011;2845;48.626;9.362;2023-07-08T00:18:09;6.25;;;2.80;;
5646;SDS011;2845;48.626;9.362;2023-07-08T00:20:46;7.93;;;3.05;;
5646;SDS011;2845;48.626;9.362;2023-07-08T00:23:22;6.97;;;2.80;;
5646;SDS011;2845;48.626;9.362;2023-07-08T00:25:57;7.32;;;3.22;;
5646;SDS011;2845;48.626;9.362;2023-07-08T00:28:32;6.78;;;2.83;;
5646;SDS011;2845;48.626;9.362;2023-07-08T00:31:08;5.55;;;2.70;;
5646;SDS011;2845;48.626;9.362;2023-07-08T00:33:43;5.43;;;2.88;;
5646;SDS011;2845;48.626;9.362;2023-07-08T00:36:17;7.50;;;2.83;;
5646;SDS011;2845;48.626;9.362;2023-07-08T00:38:52;8.07;;;3.13;;
5646;SDS011;2845;48.626;9.362;2023-07-08T00:41:29;7.45;;;2.90;;
5646;SDS011;2845;48.626;9.362;2023-07-08T00:44:07;6.32;;;2.63;;
5646;SDS011;2845;48.626;9.362;2023-07-08T00:46:47;5.88;;;2.80;;
5646;SDS011;2845;48.626;9.362;2023-07-08T00:49:33;7.28;;;2.90;;
5646;SDS011;2845;48.626;9.362;2023-07-08T00:52:16;5.43;;;2.45;;
5646;SDS011;2845;48.626;9.362;2023-07-08T00:54:56;6.75;;;2.95;;
5646;SDS011;2845;48.626;9.362;2023-07-08T00:57:36;7.03;;;2.53;;
5646;SDS011;2845;48.626;9.362;2023-07-08T01:00:16;6.93;;;3.15;;
5646;SDS011;2845;48.626;9.362;2023-07-08T01:02:51;7.68;;;3.42;;
5646;SDS011;2845;48.626;9.362;2023-07-08T01:05:30;7.53;;;2.65;;
5646;SDS011;2845;48.626;9.362;2023-07-08T01:08:06;7.72;;;3.30;;
5646;SDS011;2845;48.626;9.362;2023-07-08T01:10:43;7.55;;;3.00;;
5646;SDS011;2845;48.626;9.362;2023-07-08T01:13:25;5.72;;;2.45;;
5646;SDS011;2845;48.626;9.362;2023-07-08T01:15:59;7.55;;;2.90;;
5646;SDS011;2845;48.626;9.362;2023-07-08T01:18:34;5.72;;;2.63;;
5646;SDS011;2845;48.626;9.362;2023-07-08T01:24:07;8.75;;;3.38;;
5646;SDS011;2845;48.626;9.362;2023-07-08T01:26:44;5.65;;;2.20;;
5646;SDS011;2845;48.626;9.362;2023-07-08T01:29:19;7.70;;;3.00;;
5646;SDS011;2845;48.626;9.362;2023-07-08T01:31:54;6.53;;;2.78;;
5646;SDS011;2845;48.626;9.362;2023-07-08T01:34:29;7.00;;;3.00;;
5646;SDS011;2845;48.626;9.362;2023-07-08T01:37:04;6.93;;;2.95;;
5646;SDS011;2845;48.626;9.362;2023-07-08T01:39:41;7.00;;;3.08;;
5646;SDS011;2845;48.626;9.362;2023-07-08T01:42:16;7.85;;;2.95;;
5646;SDS011;2845;48.626;9.362;2023-07-08T01:44:50;6.70;;;2.45;;
5646;SDS011;2845;48.626;9.362;2023-07-08T01:47:25;7.03;;;2.90;;
5646;SDS011;2845;48.626;9.362;2023-07-08T01:50:00;6.60;;;2.72;;
5646;SDS011;2845;48.626;9.362;2023-07-08T01:52:35;9.07;;;3.08;;
5646;SDS011;2845;48.626;9.362;2023-07-08T01:55:11;6.32;;;2.55;;
5646;SDS011;2845;48.626;9.362;2023-07-08T01:57:45;7.03;;;2.80;;
5646;SDS011;2845;48.626;9.362;2023-07-08T02:00:20;5.43;;;2.70;;
5646;SDS011;2845;48.626;9.362;2023-07-08T02:02:55;6.18;;;2.50;;
5646;SDS011;2845;48.626;9.362;2023-07-08T02:05:29;7.38;;;2.80;;
5646;SDS011;2845;48.626;9.362;2023-07-08T02:08:04;9.27;;;2.90;;
5646;SDS011;2845;48.626;9.362;2023-07-08T02:10:40;7.60;;;2.78;;
5646;SDS011;2845;48.626;9.362;2023-07-08T02:13:16;6.15;;;2.47;;
5646;SDS011;2845;48.626;9.362;2023-07-08T02:15:50;5.32;;;2.42;;
5646;SDS011;2845;48.626;9.362;2023-07-08T02:18:25;7.35;;;3.10;;
5646;SDS011;2845;48.626;9.362;2023-07-08T02:20:59;6.15;;;2.58;;
5646;SDS011;2845;48.626;9.362;2023-07-08T02:23:34;6.20;;;2.42;;
5646;SDS011;2845;48.626;9.362;2023-07-08T02:26:09;7.00;;;2.53;;
5646;SDS011;2845;48.626;9.362;2023-07-08T02:28:43;7.15;;;2.80;;
5646;SDS011;2845;48.626;9.362;2023-07-08T02:31:18;6.70;;;2.70;;
5646;SDS011;2845;48.626;9.362;2023-07-08T02:33:53;7.18;;;2.78;;
5646;SDS011;2845;48.626;9.362;2023-07-08T02:36:28;5.95;;;2.40;;
5646;SDS011;2845;48.626;9.362;2023-07-08T02:39:02;4.88;;;2.78;;
5646;SDS011;2845;48.626;9.362;2023-07-08T02:41:38;6.32;;;2.63;;
5646;SDS011;2845;48.626;9.362;2023-07-08T02:44:12;6.97;;;2.58;;
5646;SDS011;2845;48.626;9.362;2023-07-08T02:46:46;7.00;;;3.17;;
5646;SDS011;2845;48.626;9.362;2023-07-08T02:49:20;9.77;;;3.58;;
5646;SDS011;2845;48.626;9.362;2023-07-08T02:51:54;7.20;;;2.95;;
5646;SDS011;2845;48.626;9.362;2023-07-08T02:54:29;7.25;;;2.95;;
5646;SDS011;2845;48.626;9.362;2023-07-08T02:57:05;5.68;;;2.53;;
5646;SDS011;2845;48.626;9.362;2023-07-08T02:59:39;7.00;;;2.53;;
5646;SDS011;2845;48.626;9.362;2023-07-08T03:02:14;6.50;;;2.80;;
5646;SDS011;2845;48.626;9.362;2023-07-08T03:04:48;4.78;;;2.35;;
5646;SDS011;2845;48.626;9.362;2023-07-08T03:07:23;7.10;;;3.13;;
5646;SDS011;2845;48.626;9.362;2023-07-08T03:09:57;7.93;;;3.03;;
5646;SDS011;2845;48.626;9.362;2023-07-08T03:12:33;7.97;;;2.90;;
5646;SDS011;2845;48.626;9.362;2023-07-08T03:15:07;5.45;;;2.70;;
5646;SDS011;2845;48.626;9.362;2023-07-08T03:17:42;6.35;;;2.45;;
5646;SDS011;2845;48.626;9.362;2023-07-08T03:20:17;6.72;;;3.15;;
5646;SDS011;2845;48.626;9.362;2023-07-08T03:22:52;8.70;;;2.60;;
5646;SDS011;2845;48.626;9.362;2023-07-08T03:25:26;6.70;;;2.92;;
5646;SDS011;2845;48.626;9.362;2023-07-08T03:28:02;7.03;;;2.80;;
5646;SDS011;2845;48.626;9.362;2023-07-08T03:30:38;6.15;;;2.58;;
5646;SDS011;2845;48.626;9.362;2023-07-08T03:33:13;6.22;;;2.63;;
5646;SDS011;2845;48.626;9.362;2023-07-08T03:35:47;7.05;;;2.47;;
5646;SDS011;2845;48.626;9.362;2023-07-08T03:38:22;5.28;;;2.70;;
5646;SDS011;2845;48.626;9.362;2023-07-08T03:40:56;6.10;;;2.40;;
5646;SDS011;2845;48.626;9.362;2023-07-08T03:43:32;7.15;;;2.55;;
5646;SDS011;2845;48.626;9.362;2023-07-08T03:46:07;6.65;;;2.70;;
5646;SDS011;2845;48.626;9.362;2023-07-08T03:48:43;5.97;;;2.70;;
5646;SDS011;2845;48.626;9.362;2023-07-08T03:51:20;5.93;;;2.70;;
5646;SDS011;2845;48.626;9.362;2023-07-08T03:53:57;7.53;;;3.35;;
5646;SDS011;2845;48.626;9.362;2023-07-08T03:56:33;5.95;;;2.55;;
5646;SDS011;2845;48.626;9.362;2023-07-08T03:59:09;6.97;;;2.78;;
5646;SDS011;2845;48.626;9.362;2023-07-08T04:01:43;6.40;;;2.70;;
5646;SDS011;2845;48.626;9.362;2023-07-08T04:04:18;6.15;;;2.30;;
5646;SDS011;2845;48.626;9.362;2023-07-08T04:06:52;6.35;;;2.30;;
5646;SDS011;2845;48.626;9.362;2023-07-08T04:09:27;6.47;;;2.95;;
5646;SDS011;2845;48.626;9.362;2023-07-08T04:12:01;6.65;;;2.10;;
5646;SDS011;2845;48.626;9.362;2023-07-08T04:14:38;4.88;;;2.53;;
5646;SDS011;2845;48.626;9.362;2023-07-08T04:17:15;6.85;;;2.80;;
5646;SDS011;2845;48.626;9.362;2023-07-08T04:19:51;6.72;;;2.80;;
5646;SDS011;2845;48.626;9.362;2023-07-08T04:22:25;7.25;;;2.50;;
5646;SDS011;2845;48.626;9.362;2023-07-08T04:24:59;7.18;;;2.17;;
5646;SDS011;2845;48.626;9.362;2023-07-08T04:27:38;5.88;;;2.65;;
5646;SDS011;2845;48.626;9.362;2023-07-08T04:30:17;6.55;;;2.90;;
5646;SDS011;2845;48.626;9.362;2023-07-08T04:32:56;5.32;;;2.58;;
5646;SDS011;2845;48.626;9.362;2023-07-08T04:35:30;6.93;;;3.17;;
5646;SDS011;2845;48.626;9.362;2023-07-08T04:38:04;7.80;;;2.97;;
5646;SDS011;2845;48.626;9.362;2023-07-08T04:40:41;6.10;;;2.33;;
5646;SDS011;2845;48.626;9.362;2023-07-08T04:43:15;5.55;;;2.63;;
5646;SDS011;2845;48.626;9.362;2023-07-08T04:45:51;5.32;;;2.60;;
5646;SDS011;2845;48.626;9.362;2023-07-08T04:48:27;6.05;;;2.50;;
5646;SDS011;2845;48.626;9.362;2023-07-08T04:51:01;5.70;;;2.60;;
5646;SDS011;2845;48.626;9.362;2023-07-08T04:53:36;6.13;;;2.35;;
5646;SDS011;2845;48.626;9.362;2023-07-08T04:56:10;6.45;;;2.40;;
5646;SDS011;2845;48.626;9.362;2023-07-08T04:58:44;7.35;;;2.70;;
5646;SDS011;2845;48.626;9.362;2023-07-08T05:01:19;6.22;;;2.72;;
5646;SDS011;2845;48.626;9.362;2023-07-08T05:03:54;6.18;;;2.60;;
5646;SDS011;2845;48.626;9.362;2023-07-08T05:06:28;7.22;;;2.65;;
5646;SDS011;2845;48.626;9.362;2023-07-08T05:09:02;6.68;;;3.33;;
5646;SDS011;2845;48.626;9.362;2023-07-08T05:11:37;5.13;;;2.53;;
5646;SDS011;2845;48.626;9.362;2023-07-08T05:14:11;5.97;;;2.75;;
5646;SDS011;2845;48.626;9.362;2023-07-08T05:16:47;8.30;;;2.83;;
5646;SDS011;2845;48.626;9.362;2023-07-08T05:19:21;6.82;;;3.15;;
5646;SDS011;2845;48.626;9.362;2023-07-08T05:21:56;6.72;;;2.95;;
5646;SDS011;2845;48.626;9.362;2023-07-08T05:24:30;6.93;;;3.13;;
5646;SDS011;2845;48.626;9.362;2023-07-08T05:27:04;6.05;;;2.75;;
5646;SDS011;2845;48.626;9.362;2023-07-08T05:29:39;5.60;;;2.65;;
5646;SDS011;2845;48.626;9.362;2023-07-08T05:32:14;7.82;;;2.90;;
5646;SDS011;2845;48.626;9.362;2023-07-08T05:34:48;6.53;;;2.72;;
5646;SDS011;2845;48.626;9.362;2023-07-08T05:37:23;6.63;;;2.80;;
5646;SDS011;2845;48.626;9.362;2023-07-08T05:39:57;6.10;;;2.85;;
5646;SDS011;2845;48.626;9.362;2023-07-08T05:42:34;6.15;;;2.63;;
5646;SDS011;2845;48.626;9.362;2023-07-08T05:45:09;5.05;;;2.90;;
5646;SDS011;2845;48.626;9.362;2023-07-08T05:47:44;6.88;;;2.67;;
5646;SDS011;2845;48.626;9.362;2023-07-08T05:50:18;5.10;;;2.50;;
5646;SDS011;2845;48.626;9.362;2023-07-08T05:52:53;6.25;;;2.92;;
5646;SDS011;2845;48.626;9.362;2023-07-08T05:55:27;7.63;;;3.20;;
5646;SDS011;2845;48.626;9.362;2023-07-08T05:58:01;5.05;;;2.60;;
5646;SDS011;2845;48.626;9.362;2023-07-08T06:00:54;5.90;;;2.47;;
5646;SDS011;2845;48.626;9.362;2023-07-08T06:03:32;7.40;;;2.63;;
5646;SDS011;2845;48.626;9.362;2023-07-08T06:06:06;6.25;;;2.78;;
5646;SDS011;2845;48.626;9.362;2023-07-08T06:08:40;6.28;;;2.78;;
5646;SDS011;2845;48.626;9.362;2023-07-08T06:11:14;6.18;;;3.10;;
5646;SDS011;2845;48.626;9.362;2023-07-08T06:13:49;5.25;;;2.50;;
5646;SDS011;2845;48.626;9.362;2023-07-08T06:16:23;5.97;;;2.88;;
5646;SDS011;2845;48.626;9.362;2023-07-08T06:19:13;7.93;;;3.03;;
5646;SDS011;2845;48.626;9.362;2023-07-08T06:21:50;7.00;;;3.25;;
5646;SDS011;2845;48.626;9.362;2023-07-08T06:24:24;6.28;;;3.15;;
5646;SDS011;2845;48.626;9.362;2023-07-08T06:26:58;5.75;;;2.85;;
5646;SDS011;2845;48.626;9.362;2023-07-08T06:29:33;5.68;;;2.50;;
5646;SDS011;2845;48.626;9.362;2023-07-08T06:32:08;5.97;;;3.05;;
5646;SDS011;2845;48.626;9.362;2023-07-08T06:34:43;5.45;;;2.55;;
5646;SDS011;2845;48.626;9.362;2023-07-08T06:37:17;7.15;;;3.15;;
5646;SDS011;2845;48.626;9.362;2023-07-08T06:39:52;5.03;;;2.45;;
5646;SDS011;2845;48.626;9.362;2023-07-08T06:42:26;6.85;;;3.10;;
5646;SDS011;2845;48.626;9.362;2023-07-08T06:45:02;7.20;;;3.08;;
5646;SDS011;2845;48.626;9.362;2023-07-08T06:47:37;6.20;;;2.95;;
5646;SDS011;2845;48.626;9.362;2023-07-08T06:50:12;6.75;;;2.50;;
5646;SDS011;2845;48.626;9.362;2023-07-08T06:52:46;5.78;;;2.80;;
5646;SDS011;2845;48.626;9.362;2023-07-08T06:55:20;6.20;;;2.80;;
5646;SDS011;2845;48.626;9.362;2023-07-08T06:57:55;5.60;;;2.83;;
5646;SDS011;2845;48.626;9.362;2023-07-08T07:00:29;5.03;;;2.72;;
5646;SDS011;2845;48.626;9.362;2023-07-08T07:03:03;6.00;;;2.95;;
5646;SDS011;2845;48.626;9.362;2023-07-08T07:05:38;5.63;;;2.70;;
5646;SDS011;2845;48.626;9.362;2023-07-08T07:08:13;6.18;;;2.70;;
5646;SDS011;2845;48.626;9.362;2023-07-08T07:10:47;6.30;;;2.47;;
5646;SDS011;2845;48.626;9.362;2023-07-08T07:13:21;8.10;;;3.33;;
5646;SDS011;2845;48.626;9.362;2023-07-08T07:15:55;6.45;;;2.90;;
5646;SDS011;2845;48.626;9.362;2023-07-08T07:18:30;5.63;;;3.03;;
5646;SDS011;2845;48.626;9.362;2023-07-08T07:21:06;7.50;;;3.53;;
5646;SDS011;2845;48.626;9.362;2023-07-08T07:23:40;7.47;;;2.75;;
5646;SDS011;2845;48.626;9.362;2023-07-08T07:26:14;6.07;;;3.22;;
5646;SDS011;2845;48.626;9.362;2023-07-08T07:28:48;7.88;;;2.78;;
5646;SDS011;2845;48.626;9.362;2023-07-08T07:31:22;7.20;;;3.15;;
5646;SDS011;2845;48.626;9.362;2023-07-08T07:33:57;6.18;;;3.05;;
5646;SDS011;2845;48.626;9.362;2023-07-08T07:36:33;5.53;;;2.80;;
5646;SDS011;2845;48.626;9.362;2023-07-08T07:39:07;6.75;;;3.35;;
5646;SDS011;2845;48.626;9.362;2023-07-08T07:41:41;6.88;;;3.35;;
5646;SDS011;2845;48.626;9.362;2023-07-08T07:44:16;7.25;;;2.75;;
5646;SDS011;2845;48.626;9.362;2023-07-08T07:46:51;5.85;;;3.15;;
5646;SDS011;2845;48.626;9.362;2023-07-08T07:49:27;5.93;;;2.75;;
5646;SDS011;2845;48.626;9.362;2023-07-08T07:52:02;6.65;;;2.88;;
5646;SDS011;2845;48.626;9.362;2023-07-08T07:54:38;7.35;;;2.90;;
5646;SDS011;2845;48.626;9.362;2023-07-08T07:57:12;5.63;;;2.65;;
5646;SDS011;2845;48.626;9.362;2023-07-08T07:59:46;5.35;;;2.45;;
5646;SDS011;2845;48.626;9.362;2023-07-08T08:02:21;5.43;;;2.83;;
5646;SDS011;2845;48.626;9.362;2023-07-08T08:04:56;6.40;;;2.65;;
5646;SDS011;2845;48.626;9.362;2023-07-08T08:07:31;6.40;;;2.40;;
5646;SDS011;2845;48.626;9.362;2023-07-08T08:10:06;5.57;;;2.40;;
5646;SDS011;2845;48.626;9.362;2023-07-08T08:12:41;4.47;;;2.22;;
5646;SDS011;2845;48.626;9.362;2023-07-08T08:15:24;5.45;;;2.33;;
5646;SDS011;2845;48.626;9.362;2023-07-08T08:17:59;4.78;;;2.17;;
5646;SDS011;2845;48.626;9.362;2023-07-08T08:20:33;4.63;;;2.50;;
5646;SDS011;2845;48.626;9.362;2023-07-08T08:23:08;4.55;;;2.40;;
5646;SDS011;2845;48.626;9.362;2023-07-08T08:25:43;5.78;;;2.78;;
5646;SDS011;2845;48.626;9.362;2023-07-08T08:28:17;4.13;;;2.13;;
5646;SDS011;2845;48.626;9.362;2023-07-08T08:30:51;6.00;;;2.55;;
5646;SDS011;2845;48.626;9.362;2023-07-08T08:33:26;4.18;;;2.00;;
5646;SDS011;2845;48.626;9.362;2023-07-08T08:36:00;5.22;;;2.50;;
5646;SDS011;2845;48.626;9.362;2023-07-08T08:38:36;4.38;;;2.17;;
5646;SDS011;2845;48.626;9.362;2023-07-08T08:41:11;4.78;;;2.08;;
5646;SDS011;2845;48.626;9.362;2023-07-08T08:43:48;4.15;;;2.20;;
5646;SDS011;2845;48.626;9.362;2023-07-08T08:46:26;4.15;;;2.30;;
5646;SDS011;2845;48.626;9.362;2023-07-08T08:49:14;4.60;;;2.25;;
5646;SDS011;2845;48.626;9.362;2023-07-08T08:51:57;4.57;;;2.45;;
5646;SDS011;2845;48.626;9.362;2023-07-08T08:54:34;5.45;;;2.65;;
5646;SDS011;2845;48.626;9.362;2023-07-08T08:57:12;5.18;;;2.25;;
5646;SDS011;2845;48.626;9.362;2023-07-08T09:00:07;5.65;;;2.53;;
5646;SDS011;2845;48.626;9.362;2023-07-08T09:02:48;4.65;;;2.35;;
5646;SDS011;2845;48.626;9.362;2023-07-08T09:05:27;4.97;;;2.33;;
5646;SDS011;2845;48.626;9.362;2023-07-08T09:08:03;4.53;;;2.30;;
5646;SDS011;2845;48.626;9.362;2023-07-08T09:10:45;4.38;;;2.35;;
5646;SDS011;2845;48.626;9.362;2023-07-08T09:13:25;3.95;;;2.33;;
5646;SDS011;2845;48.626;9.362;2023-07-08T09:16:06;4.65;;;2.20;;
5646;SDS011;2845;48.626;9.362;2023-07-08T09:18:53;3.80;;;1.80;;
5646;SDS011;2845;48.626;9.362;2023-07-08T09:21:35;4.07;;;2.15;;
5646;SDS011;2845;48.626;9.362;2023-07-08T09:24:17;5.32;;;2.33;;
5646;SDS011;2845;48.626;9.362;2023-07-08T09:27:01;6.13;;;2.30;;
5646;SDS011;2845;48.626;9.362;2023-07-08T09:29:36;7.65;;;2.67;;
5646;SDS011;2845;48.626;9.362;2023-07-08T09:32:14;4.35;;;2.30;;
5646;SDS011;2845;48.626;9.362;2023-07-08T09:34:52;5.13;;;2.40;;
5646;SDS011;2845;48.626;9.362;2023-07-08T09:37:29;5.15;;;2.03;;
5646;SDS011;2845;48.626;9.362;2023-07-08T09:40:14;6.45;;;2.22;;
5646;SDS011;2845;48.626;9.362;2023-07-08T09:42:54;5.50;;;1.98;;
5646;SDS011;2845;48.626;9.362;2023-07-08T09:45:39;4.68;;;2.00;;
5646;SDS011;2845;48.626;9.362;2023-07-08T09:48:17;3.70;;;2.00;;
5646;SDS011;2845;48.626;9.362;2023-07-08T09:50:57;4.68;;;2.50;;
5646;SDS011;2845;48.626;9.362;2023-07-08T09:53:33;3.80;;;1.92;;
5646;SDS011;2845;48.626;9.362;2023-07-08T09:56:08;5.03;;;2.03;;
5646;SDS011;2845;48.626;9.362;2023-07-08T09:58:45;3.00;;;1.70;;
5646;SDS011;2845;48.626;9.362;2023-07-08T10:01:22;4.45;;;2.13;;
5646;SDS011;2845;48.626;9.362;2023-07-08T10:04:00;2.58;;;1.70;;
5646;SDS011;2845;48.626;9.362;2023-07-08T10:06:35;4.22;;;2.25;;
5646;SDS011;2845;48.626;9.362;2023-07-08T10:09:11;4.38;;;2.00;;
5646;SDS011;2845;48.626;9.362;2023-07-08T10:11:52;5.10;;;1.80;;
5646;SDS011;2845;48.626;9.362;2023-07-08T10:14:34;4.13;;;2.45;;
5646;SDS011;2845;48.626;9.362;2023-07-08T10:17:15;3.55;;;2.13;;
5646;SDS011;2845;48.626;9.362;2023-07-08T10:19:51;3.88;;;2.08;;
5646;SDS011;2845;48.626;9.362;2023-07-08T10:22:29;2.95;;;1.80;;
5646;SDS011;2845;48.626;9.362;2023-07-08T10:25:16;5.50;;;2.30;;
5646;SDS011;2845;48.626;9.362;2023-07-08T10:28:06;3.78;;;1.92;;
5646;SDS011;2845;48.626;9.362;2023-07-08T10:31:02;3.08;;;1.63;;
5646;SDS011;2845;48.626;9.362;2023-07-08T10:33:59;3.67;;;1.58;;
5646;SDS011;2845;48.626;9.362;2023-07-08T10:36:51;3.08;;;1.75;;
5646;SDS011;2845;48.626;9.362;2023-07-08T10:39:41;2.42;;;1.55;;
5646;SDS011;2845;48.626;9.362;2023-07-08T10:42:33;3.78;;;1.90;;
5646;SDS011;2845;48.626;9.362;2023-07-08T10:45:26;3.35;;;1.60;;
5646;SDS011;2845;48.626;9.362;2023-07-08T10:48:16;3.58;;;1.63;;
5646;SDS011;2845;48.626;9.362;2023-07-08T10:51:10;3.10;;;1.45;;
5646;SDS011;2845;48.626;9.362;2023-07-08T10:53:58;3.85;;;1.63;;
5646;SDS011;2845;48.626;9.362;2023-07-08T10:57:08;1.95;;;1.20;;
5646;SDS011;2845;48.626;9.362;2023-07-08T10:59:56;2.30;;;1.30;;
5646;SDS011;2845;48.626;9.362;2023-07-08T11:02:49;2.85;;;1.70;;
5646;SDS011;2845;48.626;9.362;2023-07-08T11:05:52;2.47;;;1.33;;
5646;SDS011;2845;48.626;9.362;2023-07-08T11:08:35;2.83;;;1.50;;
5646;SDS011;2845;48.626;9.362;2023-07-08T11:11:21;1.92;;;1.30;;
5646;SDS011;2845;48.626;9.362;2023-07-08T11:14:08;2.08;;;1.27;;
5646;SDS011;2845;48.626;9.362;2023-07-08T11:16:49;2.97;;;1.45;;
5646;SDS011;2845;48.626;9.362;2023-07-08T11:19:30;3.75;;;2.28;;
5646;SDS011;2845;48.626;9.362;2023-07-08T11:22:11;3.42;;;1.80;;
5646;SDS011;2845;48.626;9.362;2023-07-08T11:24:49;3.97;;;1.77;;
5646;SDS011;2845;48.626;9.362;2023-07-08T11:27:26;2.88;;;1.45;;
5646;SDS011;2845;48.626;9.362;2023-07-08T11:30:04;1.88;;;1.25;;
5646;SDS011;2845;48.626;9.362;2023-07-08T11:32:47;3.45;;;1.50;;
5646;SDS011;2845;48.626;9.362;2023-07-08T11:35:32;2.00;;;1.20;;
5646;SDS011;2845;48.626;9.362;2023-07-08T11:38:13;2.55;;;1.30;;
5646;SDS011;2845;48.626;9.362;2023-07-08T11:40:50;2.80;;;1.45;;
5646;SDS011;2845;48.626;9.362;2023-07-08T11:43:28;4.03;;;1.60;;
5646;SDS011;2845;48.626;9.362;2023-07-08T11:46:24;1.73;;;1.08;;
5646;SDS011;2845;48.626;9.362;2023-07-08T11:49:03;4.95;;;1.55;;
5646;SDS011;2845;48.626;9.362;2023-07-08T11:51:40;3.25;;;1.60;;
5646;SDS011;2845;48.626;9.362;2023-07-08T11:54:21;3.08;;;1.60;;
5646;SDS011;2845;48.626;9.362;2023-07-08T11:57:03;3.03;;;1.55;;
5646;SDS011;2845;48.626;9.362;2023-07-08T11:59:41;2.55;;;1.30;;
5646;SDS011;2845;48.626;9.362;2023-07-08T12:02:17;4.95;;;1.88;;
5646;SDS011;2845;48.626;9.362;2023-07-08T12:04:56;2.17;;;1.20;;
5646;SDS011;2845;48.626;9.362;2023-07-08T12:07:37;3.10;;;1.80;;
5646;SDS011;2845;48.626;9.362;2023-07-08T12:10:17;3.28;;;1.30;;
5646;SDS011;2845;48.626;9.362;2023-07-08T12:13:01;3.28;;;1.33;;
5646;SDS011;2845;48.626;9.362;2023-07-08T12:15:36;2.25;;;1.25;;
5646;SDS011;2845;48.626;9.362;2023-07-08T12:18:13;3.25;;;1.50;;
5646;SDS011;2845;48.626;9.362;2023-07-08T12:20:51;2.78;;;1.48;;
5646;SDS011;2845;48.626;9.362;2023-07-08T12:23:28;2.45;;;1.48;;
5646;SDS011;2845;48.626;9.362;2023-07-08T12:26:04;2.15;;;1.33;;
5646;SDS011;2845;48.626;9.362;2023-07-08T12:28:39;3.28;;;1.60;;
5646;SDS011;2845;48.626;9.362;2023-07-08T12:31:15;2.92;;;1.60;;
5646;SDS011;2845;48.626;9.362;2023-07-08T12:33:54;3.17;;;1.13;;
5646;SDS011;2845;48.626;9.362;2023-07-08T12:36:28;2.67;;;1.55;;
5646;SDS011;2845;48.626;9.362;2023-07-08T12:39:08;2.75;;;1.30;;
5646;SDS011;2845;48.626;9.362;2023-07-08T12:41:48;3.38;;;1.80;;
5646;SDS011;2845;48.626;9.362;2023-07-08T12:44:26;3.65;;;1.75;;
5646;SDS011;2845;48.626;9.362;2023-07-08T12:47:00;3.40;;;1.52;;
5646;SDS011;2845;48.626;9.362;2023-07-08T12:49:36;2.95;;;1.70;;
5646;SDS011;2845;48.626;9.362;2023-07-08T12:52:18;3.47;;;1.55;;
5646;SDS011;2845;48.626;9.362;2023-07-08T12:54:54;1.73;;;1.25;;
5646;SDS011;2845;48.626;9.362;2023-07-08T12:57:30;4.00;;;1.75;;
5646;SDS011;2845;48.626;9.362;2023-07-08T13:00:05;3.65;;;1.67;;
5646;SDS011;2845;48.626;9.362;2023-07-08T13:02:45;2.47;;;1.52;;
5646;SDS011;2845;48.626;9.362;2023-07-08T13:05:23;4.82;;;1.90;;
5646;SDS011;2845;48.626;9.362;2023-07-08T13:07:59;3.22;;;1.50;;
5646;SDS011;2845;48.626;9.362;2023-07-08T13:10:34;3.60;;;1.83;;
5646;SDS011;2845;48.626;9.362;2023-07-08T13:13:12;2.13;;;1.42;;
5646;SDS011;2845;48.626;9.362;2023-07-08T13:15:53;5.10;;;1.90;;
5646;SDS011;2845;48.626;9.362;2023-07-08T13:18:30;3.95;;;1.73;;
5646;SDS011;2845;48.626;9.362;2023-07-08T13:21:09;4.30;;;2.00;;
5646;SDS011;2845;48.626;9.362;2023-07-08T13:23:47;2.88;;;1.67;;
5646;SDS011;2845;48.626;9.362;2023-07-08T13:26:21;2.97;;;1.58;;
5646;SDS011;2845;48.626;9.362;2023-07-08T13:29:00;2.63;;;1.80;;
5646;SDS011;2845;48.626;9.362;2023-07-08T13:31:38;2.92;;;1.90;;
5646;SDS011;2845;48.626;9.362;2023-07-08T13:34:15;3.15;;;1.48;;
5646;SDS011;2845;48.626;9.362;2023-07-08T13:36:52;4.30;;;1.83;;
5646;SDS011;2845;48.626;9.362;2023-07-08T13:39:28;4.88;;;2.40;;
5646;SDS011;2845;48.626;9.362;2023-07-08T13:42:07;2.75;;;1.73;;
5646;SDS011;2845;48.626;9.362;2023-07-08T13:44:43;3.28;;;1.52;;
5646;SDS011;2845;48.626;9.362;2023-07-08T13:47:21;2.53;;;1.73;;
5646;SDS011;2845;48.626;9.362;2023-07-08T13:50:04;3.83;;;2.25;;
5646;SDS011;2845;48.626;9.362;2023-07-08T13:52:47;3.08;;;1.60;;
5646;SDS011;2845;48.626;9.362;2023-07-08T13:55:28;3.70;;;1.73;;
5646;SDS011;2845;48.626;9.362;2023-07-08T13:58:02;3.25;;;2.00;;
5646;SDS011;2845;48.626;9.362;2023-07-08T14:00:40;2.63;;;1.70;;
5646;SDS011;2845;48.626;9.362;2023-07-08T14:03:15;2.45;;;1.65;;
5646;SDS011;2845;48.626;9.362;2023-07-08T14:05:51;3.08;;;1.80;;
5646;SDS011;2845;48.626;9.362;2023-07-08T14:08:25;4.32;;;1.73;;
5646;SDS011;2845;48.626;9.362;2023-07-08T14:11:00;2.97;;;1.83;;
5646;SDS011;2845;48.626;9.362;2023-07-08T14:13:34;3.10;;;2.00;;
5646;SDS011;2845;48.626;9.362;2023-07-08T14:16:21;2.95;;;1.58;;
5646;SDS011;2845;48.626;9.362;2023-07-08T14:19:00;2.70;;;1.50;;
5646;SDS011;2845;48.626;9.362;2023-07-08T14:21:37;2.78;;;1.75;;
5646;SDS011;2845;48.626;9.362;2023-07-08T14:24:12;4.53;;;1.90;;
5646;SDS011;2845;48.626;9.362;2023-07-08T14:26:47;2.83;;;1.70;;
5646;SDS011;2845;48.626;9.362;2023-07-08T14:29:21;4.70;;;2.00;;
5646;SDS011;2845;48.626;9.362;2023-07-08T14:31:57;4.10;;;1.77;;
5646;SDS011;2845;48.626;9.362;2023-07-08T14:34:31;2.28;;;1.60;;
5646;SDS011;2845;48.626;9.362;2023-07-08T14:37:09;3.35;;;1.55;;
5646;SDS011;2845;48.626;9.362;2023-07-08T14:39:47;2.45;;;1.50;;
5646;SDS011;2845;48.626;9.362;2023-07-08T14:42:23;2.58;;;1.45;;
5646;SDS011;2845;48.626;9.362;2023-07-08T14:44:57;2.63;;;1.50;;
5646;SDS011;2845;48.626;9.362;2023-07-08T14:47:32;2.90;;;1.40;;
5646;SDS011;2845;48.626;9.362;2023-07-08T14:50:11;3.00;;;1.60;;
5646;SDS011;2845;48.626;9.362;2023-07-08T14:52:48;4.30;;;1.48;;
5646;SDS011;2845;48.626;9.362;2023-07-08T14:55:23;1.85;;;1.50;;
5646;SDS011;2845;48.626;9.362;2023-07-08T14:57:58;2.17;;;1.42;;
5646;SDS011;2845;48.626;9.362;2023-07-08T15:00:32;1.75;;;1.40;;
5646;SDS011;2845;48.626;9.362;2023-07-08T15:03:08;2.35;;;1.50;;
5646;SDS011;2845;48.626;9.362;2023-07-08T15:05:42;1.63;;;1.38;;
5646;SDS011;2845;48.626;9.362;2023-07-08T15:08:17;3.72;;;1.52;;
5646;SDS011;2845;48.626;9.362;2023-07-08T15:10:51;2.95;;;1.83;;
5646;SDS011;2845;48.626;9.362;2023-07-08T15:13:26;3.05;;;1.58;;
5646;SDS011;2845;48.626;9.362;2023-07-08T15:16:03;2.42;;;1.45;;
5646;SDS011;2845;48.626;9.362;2023-07-08T15:18:39;2.17;;;1.42;;
5646;SDS011;2845;48.626;9.362;2023-07-08T15:21:13;3.55;;;1.83;;
5646;SDS011;2845;48.626;9.362;2023-07-08T15:23:49;2.40;;;1.50;;
5646;SDS011;2845;48.626;9.362;2023-07-08T15:26:23;3.35;;;1.73;;
5646;SDS011;2845;48.626;9.362;2023-07-08T15:28:57;2.50;;;1.50;;
5646;SDS011;2845;48.626;9.362;2023-07-08T15:31:32;2.30;;;1.55;;
5646;SDS011;2845;48.626;9.362;2023-07-08T15:34:09;2.08;;;1.25;;
5646;SDS011;2845;48.626;9.362;2023-07-08T15:36:47;2.80;;;1.45;;
5646;SDS011;2845;48.626;9.362;2023-07-08T15:39:23;2.50;;;1.48;;
5646;SDS011;2845;48.626;9.362;2023-07-08T15:41:57;2.92;;;1.63;;
5646;SDS011;2845;48.626;9.362;2023-07-08T15:44:32;2.40;;;1.60;;
5646;SDS011;2845;48.626;9.362;2023-07-08T15:47:07;2.15;;;1.40;;
5646;SDS011;2845;48.626;9.362;2023-07-08T15:49:46;2.00;;;1.38;;
5646;SDS011;2845;48.626;9.362;2023-07-08T15:52:20;3.92;;;1.40;;
5646;SDS011;2845;48.626;9.362;2023-07-08T15:54:54;3.03;;;1.40;;
5646;SDS011;2845;48.626;9.362;2023-07-08T15:57:29;2.45;;;1.40;;
5646;SDS011;2845;48.626;9.362;2023-07-08T16:00:03;2.22;;;1.50;;
5646;SDS011;2845;48.626;9.362;2023-07-08T16:02:39;2.00;;;1.60;;
5646;SDS011;2845;48.626;9.362;2023-07-08T16:05:15;2.65;;;1.70;;
5646;SDS011;2845;48.626;9.362;2023-07-08T16:07:52;2.83;;;1.30;;
5646;SDS011;2845;48.626;9.362;2023-07-08T16:10:28;2.22;;;1.50;;
5646;SDS011;2845;48.626;9.362;2023-07-08T16:13:03;2.70;;;1.50;;
5646;SDS011;2845;48.626;9.362;2023-07-08T16:15:38;2.15;;;1.48;;
5646;SDS011;2845;48.626;9.362;2023-07-08T16:18:14;2.28;;;1.40;;
5646;SDS011;2845;48.626;9.362;2023-07-08T16:20:50;3.20;;;1.35;;